Terminal Aerodrome Forecast
Issued by NWS Portland, OR

Home | Current Version | Previous Version | Text Only | Print | Product List | Glossary On
Versions: 1 2 3 4 5 6 7 8 9 10 11 12 13 14 15 16 17 18 19 20 21 22 23 24 25 26 27 28 29 30 31 32 33 34 35 36
000
FTUS46 KPQR 281846 AAA
TAFSLE
TAF AMD
KSLE 281846Z 2819/2918 VRB03KT 2SM BR BKN002 OVC060
     FM282100 17003KT P6SM BKN060
     FM290300 VRB03KT 5SM BR FEW002 SCT050 OVC100
     FM290600 VRB03KT 1/2SM FG BKN002 BKN100=

USA.gov is the U.S. government's official web portal to all federal, state and local government web resources and services.